createdAt,value
2022-12-14T00:01:40.402Z,38.33
2022-12-14T00:04:07.775Z,41.08
2022-12-14T00:06:34.841Z,40.53
2022-12-14T00:09:05.134Z,40.10
2022-12-14T00:11:33.742Z,41.50
2022-12-14T00:14:03.728Z,40.00
2022-12-14T00:16:32.851Z,41.85
2022-12-14T00:19:01.552Z,40.97
2022-12-14T00:21:29.158Z,41.47
2022-12-14T00:24:00.185Z,39.50
2022-12-14T00:26:31.285Z,39.58
2022-12-14T00:29:01.199Z,40.70
2022-12-14T00:31:29.055Z,39.42
2022-12-14T00:33:56.415Z,41.08
2022-12-14T00:36:23.954Z,40.85
2022-12-14T00:38:51.333Z,40.15
2022-12-14T00:41:18.643Z,37.67
2022-12-14T00:43:49.304Z,39.67
2022-12-14T00:46:17.425Z,38.78
2022-12-14T00:48:45.105Z,39.72
2022-12-14T00:51:14.965Z,39.92
2022-12-14T00:53:44.383Z,42.03
2022-12-14T00:56:12.172Z,40.05
2022-12-14T00:58:39.276Z,41.70
2022-12-14T01:01:13.855Z,42.55
2022-12-14T01:03:41.856Z,41.75
2022-12-14T01:06:17.304Z,42.85
2022-12-14T01:08:44.564Z,40.63
2022-12-14T01:11:12.354Z,42.05
2022-12-14T01:13:39.633Z,42.05
2022-12-14T01:16:09.886Z,42.83
2022-12-14T01:18:38.582Z,42.50
2022-12-14T01:21:19.156Z,42.00
2022-12-14T01:23:47.510Z,42.58
2022-12-14T01:26:16.329Z,43.13
2022-12-14T01:28:43.388Z,43.35
2022-12-14T01:31:14.968Z,43.85
2022-12-14T01:33:42.502Z,42.83
2022-12-14T01:36:12.606Z,41.67
2022-12-14T01:38:39.721Z,42.45
2022-12-14T01:41:08.507Z,41.42
2022-12-14T01:43:54.023Z,40.55
2022-12-14T01:46:24.263Z,39.63
2022-12-14T01:48:56.028Z,40.00
2022-12-14T01:51:25.415Z,41.33
2022-12-14T01:53:53.972Z,39.65
2022-12-14T01:56:21.413Z,40.13
2022-12-14T01:58:48.654Z,39.63
2022-12-14T02:01:15.906Z,41.55
2022-12-14T02:03:49.158Z,38.90
2022-12-14T02:06:22.727Z,37.83
2022-12-14T02:08:52.491Z,26.73
2022-12-14T02:11:31.973Z,35.65
2022-12-14T02:13:58.992Z,34.75
2022-12-14T02:16:26.200Z,34.45
2022-12-14T02:18:53.472Z,34.58
2022-12-14T02:21:41.598Z,32.53
2022-12-14T02:24:28.618Z,32.97
2022-12-14T02:27:15.593Z,33.47
2022-12-14T02:29:49.250Z,34.83
2022-12-14T02:32:22.885Z,24.10
2022-12-14T02:34:59.714Z,30.00
2022-12-14T02:38:06.562Z,33.20
2022-12-14T02:40:36.726Z,36.00
2022-12-14T02:43:07.201Z,34.05
2022-12-14T02:45:42.907Z,34.40
2022-12-14T02:48:24.614Z,35.55
2022-12-14T02:51:31.534Z,36.20
2022-12-14T02:54:08.905Z,35.75
2022-12-14T02:56:43.069Z,36.80
2022-12-14T02:59:11.184Z,35.17
2022-12-14T03:01:40.043Z,35.95
2022-12-14T03:04:07.939Z,36.28
2022-12-14T03:06:35.114Z,36.60
2022-12-14T03:09:05.359Z,36.17
2022-12-14T03:11:58.163Z,36.22
2022-12-14T03:14:27.857Z,37.10
2022-12-14T03:17:00.957Z,35.88
2022-12-14T03:19:38.220Z,38.33
2022-12-14T03:22:11.718Z,35.90
2022-12-14T03:24:45.892Z,36.90
2022-12-14T03:27:19.508Z,36.65
2022-12-14T03:29:51.280Z,26.43
2022-12-14T03:32:22.030Z,36.55
2022-12-14T03:34:56.270Z,36.10
2022-12-14T03:37:39.804Z,36.60
2022-12-14T03:40:09.689Z,35.85
2022-12-14T03:43:16.588Z,36.65
2022-12-14T03:46:23.402Z,34.97
2022-12-14T03:48:53.912Z,35.60
2022-12-14T03:51:46.581Z,36.80
2022-12-14T03:54:19.096Z,36.53
2022-12-14T03:57:00.583Z,37.03
2022-12-14T03:59:46.676Z,35.08
2022-12-14T04:02:53.632Z,37.28
2022-12-14T04:05:28.888Z,35.55
2022-12-14T04:08:03.491Z,37.65
2022-12-14T04:10:58.221Z,36.60
2022-12-14T04:13:51.439Z,36.45
2022-12-14T04:16:44.705Z,37.42
2022-12-14T04:19:22.984Z,36.13
2022-12-14T04:21:56.193Z,36.58
2022-12-14T04:24:58.928Z,37.22
2022-12-14T04:27:45.872Z,36.30
2022-12-14T04:30:14.175Z,35.28
2022-12-14T04:33:01.185Z,37.50
2022-12-14T04:35:31.946Z,35.90
2022-12-14T04:38:08.319Z,38.00
2022-12-14T04:40:43.153Z,38.42
2022-12-14T04:43:14.303Z,36.80
2022-12-14T04:45:48.285Z,36.25
2022-12-14T04:48:21.866Z,35.65
2022-12-14T04:50:55.909Z,35.20
2022-12-14T04:53:29.128Z,26.85
2022-12-14T04:56:05.469Z,35.65
2022-12-14T04:58:34.182Z,35.10
2022-12-14T05:01:26.168Z,35.33
2022-12-14T05:04:20.296Z,34.95
2022-12-14T05:06:52.480Z,34.13
2022-12-14T05:09:27.808Z,34.65
2022-12-14T05:12:14.827Z,36.47
2022-12-14T05:14:47.587Z,35.80
2022-12-14T05:17:15.370Z,36.97
2022-12-14T05:19:50.773Z,36.80
2022-12-14T05:22:18.658Z,36.72
2022-12-14T05:24:45.811Z,34.92
2022-12-14T05:27:13.351Z,36.03
2022-12-14T05:29:40.717Z,36.60
2022-12-14T05:32:11.287Z,35.67
2022-12-14T05:34:38.514Z,35.92
2022-12-14T05:37:05.712Z,36.97
2022-12-14T05:39:32.937Z,37.20
2022-12-14T05:42:00.074Z,35.00
2022-12-14T05:44:27.287Z,36.08
2022-12-14T05:46:54.539Z,36.95
2022-12-14T05:49:22.086Z,35.17
2022-12-14T05:51:49.763Z,36.20
2022-12-14T05:54:16.917Z,37.28
2022-12-14T05:56:44.126Z,37.08
2022-12-14T05:59:15.585Z,37.17
2022-12-14T06:01:44.496Z,38.60
2022-12-14T06:04:17.451Z,40.55
2022-12-14T06:06:44.878Z,38.80
2022-12-14T06:09:15.837Z,38.08
2022-12-14T06:11:44.926Z,38.28
2022-12-14T06:14:13.583Z,37.42
2022-12-14T06:16:42.149Z,36.90
2022-12-14T06:19:10.247Z,35.30
2022-12-14T06:21:39.757Z,28.98
2022-12-14T06:24:07.824Z,27.30
2022-12-14T06:26:37.332Z,25.60
2022-12-14T06:29:04.833Z,24.23
2022-12-14T06:31:32.883Z,27.30
2022-12-14T06:34:02.957Z,27.00
2022-12-14T06:36:32.769Z,25.80
2022-12-14T06:39:03.858Z,27.13
2022-12-14T06:41:31.090Z,26.67
2022-12-14T06:44:05.607Z,24.65
2022-12-14T06:48:59.930Z,25.35
2022-12-14T06:51:26.983Z,26.50
2022-12-14T06:53:56.670Z,24.77
2022-12-14T06:56:26.533Z,24.00
2022-12-14T06:58:55.570Z,23.45
2022-12-14T07:01:25.005Z,21.85
2022-12-14T07:03:55.156Z,23.33
2022-12-14T07:06:23.661Z,21.85
2022-12-14T07:08:55.137Z,22.88
2022-12-14T07:11:22.527Z,21.83
2022-12-14T07:13:50.033Z,21.48
2022-12-14T07:16:20.053Z,22.40
2022-12-14T07:18:47.628Z,22.63
2022-12-14T07:21:16.960Z,23.05
2022-12-14T07:23:46.162Z,22.88
2022-12-14T07:26:17.603Z,24.00
2022-12-14T07:28:45.978Z,23.33
2022-12-14T07:31:18.759Z,22.75
2022-12-14T07:33:46.247Z,20.88
2022-12-14T07:36:17.202Z,22.92
2022-12-14T07:38:47.491Z,22.75
2022-12-14T07:41:22.063Z,23.25
2022-12-14T07:43:50.820Z,23.27
2022-12-14T07:46:21.819Z,23.15
2022-12-14T07:48:52.581Z,23.20
2022-12-14T07:51:22.809Z,22.63
2022-12-14T07:53:51.012Z,22.67
2022-12-14T07:56:21.953Z,22.25
2022-12-14T07:58:49.568Z,22.98
2022-12-14T08:01:18.257Z,21.55
2022-12-14T08:03:47.996Z,22.10
2022-12-14T08:06:17.004Z,21.73
2022-12-14T08:08:44.891Z,21.45
2022-12-14T08:11:12.939Z,22.83
2022-12-14T08:13:40.780Z,21.48
2022-12-14T08:16:12.018Z,23.30
2022-12-14T08:18:39.507Z,21.98
2022-12-14T08:21:08.783Z,23.50
2022-12-14T08:23:36.624Z,23.58
2022-12-14T08:26:05.924Z,22.48
2022-12-14T08:28:34.640Z,21.67
2022-12-14T08:31:07.508Z,20.92
2022-12-14T08:33:36.441Z,22.85
2022-12-14T08:36:10.758Z,22.20
2022-12-14T08:38:39.014Z,21.00
2022-12-14T08:41:08.632Z,20.75
2022-12-14T08:43:36.325Z,19.60
2022-12-14T08:46:06.154Z,19.42
2022-12-14T08:48:33.651Z,18.70
2022-12-14T08:51:05.225Z,18.88
2022-12-14T08:53:32.949Z,18.50
2022-12-14T08:56:06.485Z,17.67
2022-12-14T08:58:34.283Z,16.60
2022-12-14T09:01:04.048Z,17.63
2022-12-14T09:03:32.291Z,18.45
2022-12-14T09:06:05.375Z,17.50
2022-12-14T09:08:32.967Z,17.90
2022-12-14T09:11:00.873Z,18.20
2022-12-14T09:13:29.031Z,16.95
2022-12-14T09:15:59.154Z,18.05
2022-12-14T09:18:27.118Z,17.30
2022-12-14T09:20:55.948Z,18.65
2022-12-14T09:23:24.899Z,17.67
2022-12-14T09:26:03.839Z,18.20
2022-12-14T09:28:32.410Z,17.67
2022-12-14T09:31:02.634Z,18.60
2022-12-14T09:33:31.153Z,17.13
2022-12-14T09:36:01.888Z,18.13
2022-12-14T09:38:32.009Z,26.38
2022-12-14T09:41:07.056Z,18.48
2022-12-14T09:43:40.837Z,20.08
2022-12-14T09:46:34.742Z,19.48
2022-12-14T09:49:03.285Z,19.05
2022-12-14T09:51:35.297Z,18.08
2022-12-14T09:54:07.500Z,19.25
2022-12-14T09:56:36.931Z,20.73
2022-12-14T09:59:04.157Z,19.48
2022-12-14T10:05:05.492Z,19.48
2022-12-14T10:07:37.401Z,19.10
2022-12-14T10:10:19.918Z,18.55
2022-12-14T10:13:26.959Z,18.25
2022-12-14T10:15:56.271Z,18.40
2022-12-14T10:18:49.900Z,20.25
2022-12-14T10:21:14.770Z,19.20
2022-12-14T10:23:52.122Z,19.70
2022-12-14T10:26:22.740Z,19.77
2022-12-14T10:29:01.033Z,21.55
2022-12-14T10:31:52.529Z,22.13
2022-12-14T10:34:23.647Z,23.85
2022-12-14T10:36:55.189Z,22.58
2022-12-14T10:39:33.016Z,22.13
2022-12-14T10:42:24.591Z,22.48
2022-12-14T10:45:23.484Z,24.58
2022-12-14T10:47:51.651Z,24.25
2022-12-14T10:50:19.831Z,24.30
2022-12-14T10:52:49.923Z,24.73
2022-12-14T10:55:23.222Z,23.20
2022-12-14T10:57:50.428Z,23.67
2022-12-14T11:00:25.962Z,24.60
2022-12-14T11:02:56.432Z,25.02
2022-12-14T11:05:50.802Z,23.42
2022-12-14T11:08:39.998Z,23.50
2022-12-14T11:11:18.666Z,23.38
2022-12-14T11:13:49.555Z,23.40
2022-12-14T11:16:37.335Z,24.02
2022-12-14T11:19:13.978Z,24.35
2022-12-14T11:21:41.173Z,24.48
2022-12-14T11:24:23.664Z,24.80
2022-12-14T11:26:55.060Z,24.13
2022-12-14T11:29:31.754Z,23.77
2022-12-14T11:32:00.396Z,24.05
2022-12-14T11:34:34.817Z,23.45
2022-12-14T11:37:23.561Z,24.48
2022-12-14T11:39:54.442Z,23.95
2022-12-14T11:42:22.373Z,24.42
2022-12-14T11:44:50.675Z,23.38
2022-12-14T11:47:22.206Z,25.23
2022-12-14T11:49:51.113Z,24.65
2022-12-14T11:52:25.268Z,24.52
2022-12-14T11:54:52.275Z,25.35
2022-12-14T11:57:21.139Z,26.15
2022-12-14T11:59:53.653Z,27.27
2022-12-14T12:02:23.326Z,27.08
2022-12-14T12:04:56.231Z,26.45
2022-12-14T12:07:30.407Z,26.92
2022-12-14T12:10:05.531Z,26.95
2022-12-14T12:12:32.918Z,27.77
2022-12-14T12:15:00.420Z,27.63
2022-12-14T12:17:39.431Z,29.25
2022-12-14T12:20:19.280Z,29.08
2022-12-14T12:22:49.702Z,30.02
2022-12-14T12:25:30.788Z,28.42
2022-12-14T12:28:17.009Z,29.77
2022-12-14T12:30:50.080Z,30.85
2022-12-14T12:33:42.000Z,29.30
2022-12-14T12:36:09.629Z,29.25
2022-12-14T12:38:41.525Z,30.30
2022-12-14T12:41:24.164Z,29.42
2022-12-14T12:43:59.410Z,29.52
2022-12-14T12:47:07.165Z,29.52
2022-12-14T12:49:33.547Z,29.25
2022-12-14T12:52:04.487Z,30.48
2022-12-14T12:54:37.766Z,31.52
2022-12-14T12:57:08.613Z,31.10
2022-12-14T12:59:47.143Z,30.17
2022-12-14T13:02:22.249Z,30.75
2022-12-14T13:04:52.867Z,33.08
2022-12-14T13:07:43.617Z,31.92
2022-12-14T13:10:23.331Z,33.15
2022-12-14T13:13:15.936Z,32.97
2022-12-14T13:15:48.030Z,33.08
2022-12-14T13:18:41.185Z,34.47
2022-12-14T13:21:44.560Z,24.92
2022-12-14T13:24:20.595Z,33.55
2022-12-14T13:26:58.945Z,34.75
2022-12-14T13:29:46.788Z,33.47
2022-12-14T13:32:40.932Z,34.78
2022-12-14T13:35:43.535Z,34.80
2022-12-14T13:38:38.441Z,34.55
2022-12-14T13:44:16.231Z,36.88
2022-12-14T13:46:43.646Z,36.53
2022-12-14T13:49:23.446Z,37.83
2022-12-14T13:51:51.872Z,37.33
2022-12-14T13:54:27.979Z,38.38
2022-12-14T13:57:21.215Z,43.65
2022-12-14T13:59:52.294Z,41.00
2022-12-14T14:02:35.137Z,39.25
2022-12-14T14:05:18.873Z,41.58
2022-12-14T14:07:58.696Z,43.47
2022-12-14T14:10:32.127Z,43.90
2022-12-14T14:13:00.660Z,43.53
2022-12-14T14:15:36.113Z,44.17
2022-12-14T14:18:15.035Z,44.70
2022-12-14T14:20:58.540Z,42.70
2022-12-14T14:23:30.819Z,43.47
2022-12-14T14:26:22.785Z,45.28
2022-12-14T14:29:06.123Z,44.78
2022-12-14T14:31:54.817Z,46.25
2022-12-14T14:34:27.035Z,47.22
2022-12-14T14:36:55.059Z,46.00
2022-12-14T14:42:27.466Z,45.75
2022-12-14T14:44:58.523Z,47.13
2022-12-14T14:47:37.127Z,49.85
2022-12-14T14:50:20.621Z,61.25
2022-12-14T14:52:58.743Z,66.13
2022-12-14T14:55:54.007Z,64.50
2022-12-14T14:58:25.788Z,49.17
2022-12-14T15:01:20.279Z,50.65
2022-12-14T15:03:56.682Z,46.42
2022-12-14T15:06:30.061Z,46.40
2022-12-14T15:09:02.368Z,48.88
2022-12-14T15:11:40.785Z,48.63
2022-12-14T15:14:36.521Z,47.20
2022-12-14T15:17:19.636Z,47.65
2022-12-14T15:19:48.751Z,47.40
2022-12-14T15:22:20.042Z,49.20
2022-12-14T15:24:49.797Z,49.88
2022-12-14T15:27:31.575Z,46.78
2022-12-14T15:30:15.045Z,46.85
2022-12-14T15:32:47.893Z,49.45
2022-12-14T15:35:19.139Z,47.22
2022-12-14T15:37:53.540Z,48.72
2022-12-14T15:40:27.312Z,52.55
2022-12-14T15:42:57.214Z,50.78
2022-12-14T15:45:30.131Z,49.50
2022-12-14T15:48:34.399Z,53.47
2022-12-14T15:51:07.710Z,51.85
2022-12-14T15:53:39.712Z,53.05
2022-12-14T15:56:22.582Z,53.03
2022-12-14T15:58:50.483Z,52.65
2022-12-14T16:01:19.836Z,54.13
2022-12-14T16:03:51.928Z,52.03
2022-12-14T16:06:20.375Z,53.22
2022-12-14T16:09:08.320Z,53.78
2022-12-14T16:11:47.129Z,49.92
2022-12-14T16:14:17.565Z,52.55
2022-12-14T16:16:45.359Z,52.22
2022-12-14T16:19:27.116Z,50.88
2022-12-14T16:22:18.442Z,51.65
2022-12-14T16:25:16.973Z,52.83
2022-12-14T16:27:49.813Z,50.90
2022-12-14T16:30:22.967Z,50.63
2022-12-14T16:32:54.290Z,52.20
2022-12-14T16:35:25.091Z,52.40
2022-12-14T16:37:55.886Z,52.30
2022-12-14T16:40:28.648Z,50.20
2022-12-14T16:42:55.779Z,49.80
2022-12-14T16:45:42.886Z,51.42
2022-12-14T16:48:22.321Z,53.50
2022-12-14T16:51:03.663Z,51.97
2022-12-14T16:53:38.112Z,54.88
2022-12-14T16:56:13.937Z,54.38
2022-12-14T16:58:41.423Z,53.67
2022-12-14T17:01:09.920Z,53.05
2022-12-14T17:03:38.364Z,51.78
2022-12-14T17:06:07.329Z,50.75
2022-12-14T17:08:35.288Z,51.58
2022-12-14T17:11:02.613Z,49.92
2022-12-14T17:13:30.258Z,50.45
2022-12-14T17:16:00.588Z,51.17
2022-12-14T17:18:33.027Z,51.70
2022-12-14T17:21:00.555Z,50.50
2022-12-14T17:23:29.007Z,50.80
2022-12-14T17:25:56.421Z,49.55
2022-12-14T17:28:30.508Z,48.70
2022-12-14T17:31:01.825Z,49.58
2022-12-14T17:33:30.409Z,49.78
2022-12-14T17:35:57.995Z,48.05
2022-12-14T17:38:25.409Z,46.95
2022-12-14T17:40:54.041Z,47.83
2022-12-14T17:43:25.549Z,48.05
2022-12-14T17:45:53.242Z,48.13
2022-12-14T17:48:20.958Z,49.50
2022-12-14T17:50:50.020Z,47.22
2022-12-14T17:53:24.339Z,47.22
2022-12-14T17:55:52.042Z,48.63
2022-12-14T17:58:19.095Z,50.05
2022-12-14T18:01:03.461Z,48.00
2022-12-14T18:03:36.418Z,48.97
2022-12-14T18:06:04.853Z,47.38
2022-12-14T18:08:32.746Z,47.22
2022-12-14T18:11:05.428Z,49.55
2022-12-14T18:13:35.243Z,48.58
2022-12-14T18:16:02.704Z,48.38
2022-12-14T18:18:29.899Z,48.80
2022-12-14T18:21:01.040Z,49.53
2022-12-14T18:23:30.519Z,48.30
2022-12-14T18:26:00.094Z,50.50
2022-12-14T18:28:28.232Z,46.90
2022-12-14T18:31:02.171Z,48.95
2022-12-14T18:33:30.261Z,50.40
2022-12-14T18:35:57.764Z,51.45
2022-12-14T18:38:26.022Z,51.28
2022-12-14T18:40:55.773Z,50.45
2022-12-14T18:43:25.916Z,47.60
2022-12-14T18:45:54.723Z,50.13
2022-12-14T18:48:22.737Z,49.95
2022-12-14T18:50:51.639Z,51.95
2022-12-14T18:53:21.104Z,50.85
2022-12-14T18:55:49.444Z,52.40
2022-12-14T18:58:20.250Z,51.13
2022-12-14T19:00:48.894Z,53.85
2022-12-14T19:03:16.706Z,49.40
2022-12-14T19:05:45.001Z,52.45
2022-12-14T19:08:13.038Z,51.10
2022-12-14T19:10:44.534Z,50.53
2022-12-14T19:13:23.432Z,47.75
2022-12-14T19:15:53.927Z,49.75
2022-12-14T19:18:21.266Z,50.10
2022-12-14T19:20:49.542Z,50.90
2022-12-14T19:23:18.760Z,50.00
2022-12-14T19:25:47.217Z,50.45
2022-12-14T19:28:31.288Z,49.10
2022-12-14T19:31:00.584Z,52.00
2022-12-14T19:33:28.423Z,52.85
2022-12-14T19:35:56.147Z,53.67
2022-12-14T19:38:23.522Z,52.47
2022-12-14T19:41:01.291Z,52.83
2022-12-14T19:43:30.548Z,52.83
2022-12-14T19:45:58.176Z,51.55
2022-12-14T19:48:25.497Z,51.63
2022-12-14T19:50:52.846Z,51.95
2022-12-14T19:53:23.831Z,51.13
2022-12-14T19:55:55.616Z,52.25
2022-12-14T19:58:25.066Z,52.10
2022-12-14T20:00:52.815Z,55.45
2022-12-14T20:03:20.740Z,60.20
2022-12-14T20:05:58.730Z,69.78
2022-12-14T20:08:28.918Z,63.63
2022-12-14T20:10:56.676Z,53.58
2022-12-14T20:13:25.894Z,57.78
2022-12-14T20:15:58.390Z,55.33
2022-12-14T20:18:26.846Z,50.92
2022-12-14T20:21:03.399Z,49.72
2022-12-14T20:23:33.360Z,48.17
2022-12-14T20:26:03.749Z,48.67
2022-12-14T20:28:31.544Z,47.28
2022-12-14T20:30:59.177Z,48.15
2022-12-14T20:33:30.533Z,48.65
2022-12-14T20:35:59.000Z,48.30
2022-12-14T20:38:26.720Z,48.50
2022-12-14T20:40:54.686Z,46.75
2022-12-14T20:43:22.011Z,47.97
2022-12-14T20:45:49.597Z,48.92
2022-12-14T20:48:16.788Z,48.35
2022-12-14T20:50:44.394Z,48.90
2022-12-14T20:53:18.263Z,49.42
2022-12-14T20:55:45.312Z,52.58
2022-12-14T20:58:12.454Z,52.13
2022-12-14T21:00:39.759Z,52.25
2022-12-14T21:03:07.010Z,54.47
2022-12-14T21:05:39.136Z,53.15
2022-12-14T21:08:06.596Z,51.45
2022-12-14T21:10:33.953Z,56.10
2022-12-14T21:13:07.257Z,50.95
2022-12-14T21:15:35.635Z,52.40
2022-12-14T21:18:03.015Z,52.40
2022-12-14T21:20:30.436Z,52.22
2022-12-14T21:22:57.570Z,50.53
2022-12-14T21:25:24.695Z,50.00
2022-12-14T21:27:51.772Z,52.75
2022-12-14T21:30:19.047Z,53.63
2022-12-14T21:32:46.060Z,50.35
2022-12-14T21:35:17.586Z,48.55
2022-12-14T21:37:44.971Z,51.13
2022-12-14T21:40:32.199Z,51.22
2022-12-14T21:42:59.590Z,50.13
2022-12-14T21:45:27.020Z,47.92
2022-12-14T21:47:54.254Z,46.90
2022-12-14T21:50:21.484Z,49.65
2022-12-14T21:52:48.920Z,48.10
2022-12-14T21:55:16.099Z,49.25
2022-12-14T21:58:03.403Z,48.92
2022-12-14T22:00:30.519Z,49.25
2022-12-14T22:02:57.841Z,46.47
2022-12-14T22:05:25.303Z,48.53
2022-12-14T22:07:52.418Z,49.17
2022-12-14T22:10:24.600Z,50.67
2022-12-14T22:12:52.284Z,47.05
2022-12-14T22:15:19.417Z,48.75
2022-12-14T22:17:46.485Z,50.35
2022-12-14T22:20:13.640Z,48.15
2022-12-14T22:22:40.691Z,49.63
2022-12-14T22:25:08.343Z,46.17
2022-12-14T22:27:35.457Z,47.22
2022-12-14T22:30:05.397Z,45.47
2022-12-14T22:32:32.887Z,45.33
2022-12-14T22:35:00.577Z,45.22
2022-12-14T22:37:27.700Z,45.03
2022-12-14T22:39:54.844Z,48.65
2022-12-14T22:42:22.219Z,46.50
2022-12-14T22:44:49.524Z,45.55
2022-12-14T22:47:16.533Z,41.88
2022-12-14T22:49:43.704Z,40.10
2022-12-14T22:52:10.945Z,40.00
2022-12-14T22:54:39.767Z,38.50
2022-12-14T22:57:13.466Z,40.50
2022-12-14T22:59:45.709Z,37.15
2022-12-14T23:02:12.917Z,37.25
2022-12-14T23:04:40.312Z,42.42
2022-12-14T23:07:07.504Z,40.83
2022-12-14T23:09:54.637Z,40.50
2022-12-14T23:12:42.048Z,38.17
2022-12-14T23:15:30.022Z,40.03
2022-12-14T23:18:26.273Z,38.05
2022-12-14T23:21:14.390Z,38.90
2022-12-14T23:24:04.369Z,37.92
2022-12-14T23:26:51.613Z,37.80
2022-12-14T23:29:38.617Z,37.55
2022-12-14T23:32:25.613Z,38.55
2022-12-14T23:35:12.646Z,38.60
2022-12-14T23:37:59.801Z,40.60
2022-12-14T23:40:46.813Z,38.28
2022-12-14T23:43:36.415Z,39.05
2022-12-14T23:46:25.273Z,39.58
2022-12-14T23:49:15.881Z,38.60
2022-12-14T23:52:03.440Z,40.63
2022-12-14T23:54:50.393Z,38.92
2022-12-14T23:57:37.627Z,39.42
